createdAt,value
2023-07-18T00:01:25.987Z,2.38
2023-07-18T00:03:53.055Z,2.13
2023-07-18T00:06:20.691Z,2.30
2023-07-18T00:08:47.513Z,2.30
2023-07-18T00:11:14.398Z,2.60
2023-07-18T00:13:41.476Z,2.40
2023-07-18T00:16:09.895Z,2.42
2023-07-18T00:18:36.866Z,2.60
2023-07-18T00:21:03.849Z,2.40
2023-07-18T00:23:31.573Z,2.58
2023-07-18T00:25:58.462Z,2.60
2023-07-18T00:28:25.495Z,2.70
2023-07-18T00:30:52.538Z,2.33
2023-07-18T00:33:19.368Z,2.58
2023-07-18T00:35:46.309Z,2.70
2023-07-18T00:38:13.455Z,2.40
2023-07-18T00:40:42.967Z,2.65
2023-07-18T00:43:16.901Z,2.42
2023-07-18T00:45:45.698Z,2.60
2023-07-18T00:48:12.841Z,2.45
2023-07-18T00:50:39.812Z,2.47
2023-07-18T00:53:06.917Z,2.53
2023-07-18T00:55:33.972Z,2.55
2023-07-18T00:58:02.929Z,2.25
2023-07-18T01:00:29.901Z,2.40
2023-07-18T01:02:56.818Z,2.20
2023-07-18T01:05:24.061Z,2.47
2023-07-18T01:07:51.457Z,2.45
2023-07-18T01:10:25.446Z,2.90
2023-07-18T01:12:56.480Z,2.88
2023-07-18T01:15:23.773Z,2.40
2023-07-18T01:17:51.532Z,2.50
2023-07-18T01:20:20.884Z,3.00
2023-07-18T01:22:50.313Z,2.40
2023-07-18T01:25:17.900Z,2.72
2023-07-18T01:27:45.593Z,2.90
2023-07-18T01:30:13.124Z,2.38
2023-07-18T01:32:40.449Z,2.40
2023-07-18T01:35:09.336Z,2.30
2023-07-18T01:37:39.745Z,2.50
2023-07-18T01:40:09.909Z,2.40
2023-07-18T01:42:36.693Z,2.80
2023-07-18T01:45:04.587Z,2.80
2023-07-18T01:47:35.327Z,2.60
2023-07-18T01:50:04.831Z,2.45
2023-07-18T01:52:32.764Z,2.97
2023-07-18T01:55:00.767Z,2.90
2023-07-18T01:57:31.627Z,2.50
2023-07-18T02:00:01.882Z,2.70
2023-07-18T02:02:29.418Z,2.85
2023-07-18T02:04:59.886Z,3.00
2023-07-18T02:07:29.724Z,2.55
2023-07-18T02:09:56.644Z,2.70
2023-07-18T02:12:23.410Z,2.60
2023-07-18T02:14:50.254Z,2.60
2023-07-18T02:17:17.076Z,2.40
2023-07-18T02:19:43.971Z,2.85
2023-07-18T02:22:10.843Z,2.50
2023-07-18T02:24:38.988Z,2.65
2023-07-18T02:27:06.130Z,2.70
2023-07-18T02:29:33.150Z,3.00
2023-07-18T02:32:00.208Z,2.85
2023-07-18T02:34:27.154Z,3.00
2023-07-18T02:36:55.070Z,2.83
2023-07-18T02:39:21.903Z,2.55
2023-07-18T02:41:48.701Z,2.80
2023-07-18T02:44:15.519Z,3.20
2023-07-18T02:46:42.330Z,2.72
2023-07-18T02:49:09.130Z,3.05
2023-07-18T02:51:36.104Z,2.92
2023-07-18T02:54:03.930Z,2.75
2023-07-18T02:56:31.167Z,2.83
2023-07-18T02:58:58.131Z,2.92
2023-07-18T03:01:25.876Z,2.80
2023-07-18T03:03:52.695Z,3.10
2023-07-18T03:06:19.751Z,2.65
2023-07-18T03:08:46.636Z,2.97
2023-07-18T03:11:13.454Z,2.85
2023-07-18T03:13:40.275Z,2.80
2023-07-18T03:16:09.137Z,3.10
2023-07-18T03:18:36.703Z,3.13
2023-07-18T03:21:04.823Z,3.08
2023-07-18T03:23:31.845Z,2.92
2023-07-18T03:25:58.678Z,2.83
2023-07-18T03:28:25.477Z,2.90
2023-07-18T03:30:52.233Z,2.90
2023-07-18T03:33:18.968Z,4.07
2023-07-18T03:35:45.815Z,2.97
2023-07-18T03:38:12.745Z,2.75
2023-07-18T03:40:39.800Z,3.17
2023-07-18T03:43:06.660Z,3.08
2023-07-18T03:45:34.462Z,2.92
2023-07-18T03:48:01.652Z,3.30
2023-07-18T03:50:28.503Z,3.00
2023-07-18T03:52:55.306Z,3.35
2023-07-18T03:55:22.286Z,2.80
2023-07-18T03:57:49.231Z,3.05
2023-07-18T04:00:19.249Z,3.15
2023-07-18T04:02:47.851Z,3.17
2023-07-18T04:05:16.163Z,3.20
2023-07-18T04:07:45.068Z,3.35
2023-07-18T04:10:13.022Z,2.88
2023-07-18T04:12:43.193Z,3.03
2023-07-18T04:15:12.889Z,3.28
2023-07-18T04:17:42.518Z,2.95
2023-07-18T04:20:09.868Z,2.80
2023-07-18T04:22:36.781Z,3.60
2023-07-18T04:25:03.831Z,4.50
2023-07-18T04:27:30.752Z,3.63
2023-07-18T04:29:57.821Z,3.70
2023-07-18T04:32:26.068Z,3.03
2023-07-18T04:34:53.004Z,2.80
2023-07-18T04:37:20.021Z,3.03
2023-07-18T04:39:46.790Z,3.03
2023-07-18T04:42:13.721Z,2.53
2023-07-18T04:44:40.542Z,2.83
2023-07-18T04:47:09.747Z,2.90
2023-07-18T04:49:37.224Z,2.78
2023-07-18T04:52:04.831Z,2.67
2023-07-18T04:54:31.896Z,2.95
2023-07-18T04:56:58.657Z,2.65
2023-07-18T04:59:25.558Z,2.90
2023-07-18T05:01:55.690Z,2.63
2023-07-18T05:04:22.767Z,2.70
2023-07-18T05:06:52.710Z,2.85
2023-07-18T05:09:19.465Z,2.75
2023-07-18T05:11:47.749Z,2.90
2023-07-18T05:14:14.642Z,2.78
2023-07-18T05:16:41.420Z,2.45
2023-07-18T05:19:08.373Z,2.35
2023-07-18T05:21:35.267Z,2.67
2023-07-18T05:24:02.124Z,2.50
2023-07-18T05:26:28.995Z,2.78
2023-07-18T05:28:55.832Z,2.58
2023-07-18T05:31:23.256Z,2.50
2023-07-18T05:33:51.534Z,3.05
2023-07-18T05:36:18.421Z,2.70
2023-07-18T05:38:46.571Z,2.50
2023-07-18T05:41:13.543Z,2.75
2023-07-18T05:43:40.445Z,2.20
2023-07-18T05:46:07.218Z,2.55
2023-07-18T05:48:34.093Z,2.75
2023-07-18T05:51:01.886Z,3.10
2023-07-18T05:53:28.744Z,3.05
2023-07-18T05:55:55.745Z,4.72
2023-07-18T05:58:22.562Z,3.10
2023-07-18T06:00:49.510Z,4.38
2023-07-18T06:03:16.637Z,6.25
2023-07-18T06:05:43.588Z,3.65
2023-07-18T06:08:11.424Z,4.18
2023-07-18T06:10:38.394Z,2.65
2023-07-18T06:13:05.095Z,3.78
2023-07-18T06:15:31.899Z,3.38
2023-07-18T06:17:58.830Z,3.55
2023-07-18T06:20:25.665Z,3.10
2023-07-18T06:22:53.600Z,3.00
2023-07-18T06:25:20.580Z,3.15
2023-07-18T06:27:47.509Z,4.03
2023-07-18T06:30:14.656Z,3.03
2023-07-18T06:32:41.586Z,3.47
2023-07-18T06:35:23.077Z,3.30
2023-07-18T06:37:51.235Z,3.17
2023-07-18T06:40:18.507Z,3.00
2023-07-18T06:42:45.327Z,3.15
2023-07-18T06:45:13.558Z,3.17
2023-07-18T06:47:40.456Z,2.83
2023-07-18T06:50:07.716Z,2.78
2023-07-18T06:52:36.773Z,2.90
2023-07-18T06:55:05.182Z,2.63
2023-07-18T06:57:31.902Z,2.92
2023-07-18T06:59:58.754Z,3.00
2023-07-18T07:02:25.545Z,2.70
2023-07-18T07:04:52.418Z,2.58
2023-07-18T07:07:19.263Z,2.60
2023-07-18T07:09:46.199Z,4.07
2023-07-18T07:12:26.222Z,2.90
2023-07-18T07:14:57.771Z,2.50
2023-07-18T07:17:25.001Z,3.00
2023-07-18T07:19:51.859Z,2.45
2023-07-18T07:22:18.663Z,2.10
2023-07-18T07:24:47.973Z,2.17
2023-07-18T07:27:14.777Z,2.15
2023-07-18T07:29:41.623Z,2.08
2023-07-18T07:32:08.914Z,2.20
2023-07-18T07:34:37.267Z,2.15
2023-07-18T07:37:05.390Z,2.28
2023-07-18T07:39:32.125Z,1.80
2023-07-18T07:41:58.922Z,2.20
2023-07-18T07:44:26.062Z,2.05
2023-07-18T07:46:52.955Z,1.98
2023-07-18T07:49:21.690Z,2.10
2023-07-18T07:51:48.649Z,2.00
2023-07-18T07:54:15.385Z,2.15
2023-07-18T07:56:42.129Z,2.15
2023-07-18T07:59:11.799Z,2.10
2023-07-18T08:01:39.562Z,2.60
2023-07-18T08:04:06.999Z,1.98
2023-07-18T08:06:34.005Z,2.10
2023-07-18T08:09:03.559Z,2.00
2023-07-18T08:11:30.428Z,2.38
2023-07-18T08:13:57.710Z,1.98
2023-07-18T08:16:24.859Z,2.15
2023-07-18T08:18:51.791Z,1.92
2023-07-18T08:21:20.098Z,1.90
2023-07-18T08:23:47.392Z,2.00
2023-07-18T08:26:14.276Z,1.70
2023-07-18T08:28:41.212Z,2.00
2023-07-18T08:31:08.118Z,2.30
2023-07-18T08:33:34.970Z,1.80
2023-07-18T08:36:01.756Z,2.10
2023-07-18T08:38:28.580Z,2.20
2023-07-18T08:40:55.456Z,1.73
2023-07-18T08:43:42.732Z,2.30
2023-07-18T08:46:10.357Z,2.08
2023-07-18T08:48:38.362Z,2.00
2023-07-18T08:51:05.143Z,1.92
2023-07-18T08:53:31.935Z,2.30
2023-07-18T08:55:59.084Z,1.92
2023-07-18T08:58:27.223Z,2.28
2023-07-18T09:00:54.357Z,2.28
2023-07-18T09:03:21.276Z,2.10
2023-07-18T09:05:48.273Z,1.83
2023-07-18T09:08:15.032Z,2.03
2023-07-18T09:10:41.854Z,2.22
2023-07-18T09:13:10.147Z,2.28
2023-07-18T09:15:38.533Z,1.92
2023-07-18T09:18:08.639Z,2.03
2023-07-18T09:20:35.693Z,2.00
2023-07-18T09:23:04.999Z,2.10
2023-07-18T09:25:32.382Z,1.90
2023-07-18T09:27:59.528Z,2.20
2023-07-18T09:30:33.914Z,2.47
2023-07-18T09:33:04.125Z,2.40
2023-07-18T09:35:31.083Z,1.85
2023-07-18T09:37:58.685Z,2.33
2023-07-18T09:40:26.021Z,2.00
2023-07-18T09:42:55.897Z,2.10
2023-07-18T09:45:24.424Z,2.30
2023-07-18T09:47:53.660Z,2.15
2023-07-18T09:50:20.422Z,2.30
2023-07-18T09:52:50.525Z,1.98
2023-07-18T09:55:25.775Z,1.83
2023-07-18T09:57:55.622Z,1.80
2023-07-18T10:00:24.500Z,1.60
2023-07-18T10:02:54.106Z,1.83
2023-07-18T10:05:21.691Z,1.75
2023-07-18T10:07:49.284Z,1.60
2023-07-18T10:10:16.386Z,1.80
2023-07-18T10:13:00.060Z,1.75
2023-07-18T10:15:28.200Z,1.70
2023-07-18T10:17:55.344Z,1.70
2023-07-18T10:20:32.712Z,1.92
2023-07-18T10:23:01.389Z,2.00
2023-07-18T10:25:30.969Z,1.80
2023-07-18T10:27:59.656Z,1.70
2023-07-18T10:30:38.623Z,1.70
2023-07-18T10:33:09.820Z,1.83
2023-07-18T10:35:42.589Z,1.75
2023-07-18T10:38:09.604Z,1.80
2023-07-18T10:40:45.432Z,1.85
2023-07-18T10:43:21.294Z,1.60
2023-07-18T10:45:48.251Z,2.05
2023-07-18T10:48:17.831Z,1.80
2023-07-18T10:50:46.632Z,1.73
2023-07-18T10:53:15.933Z,1.88
2023-07-18T10:55:43.033Z,1.88
2023-07-18T10:58:12.056Z,1.92
2023-07-18T11:00:41.599Z,1.85
2023-07-18T11:03:36.445Z,1.95
2023-07-18T11:06:08.798Z,1.73
2023-07-18T11:08:35.545Z,1.90
2023-07-18T11:11:04.646Z,2.08
2023-07-18T11:13:37.205Z,1.80
2023-07-18T11:16:09.585Z,1.80
2023-07-18T11:18:37.878Z,1.90
2023-07-18T11:21:09.206Z,1.92
2023-07-18T11:23:37.378Z,2.13
2023-07-18T11:26:15.656Z,1.70
2023-07-18T11:28:44.831Z,1.70
2023-07-18T11:33:56.044Z,1.67
2023-07-18T11:36:23.693Z,1.55
2023-07-18T11:38:51.614Z,1.70
2023-07-18T11:41:41.798Z,1.63
2023-07-18T11:44:09.825Z,1.90
2023-07-18T11:46:46.015Z,2.00
2023-07-18T11:49:13.945Z,1.70
2023-07-18T11:51:42.107Z,1.67
2023-07-18T11:54:09.188Z,1.70
2023-07-18T11:56:36.764Z,1.67
2023-07-18T11:59:04.164Z,1.75
2023-07-18T12:01:37.273Z,1.70
2023-07-18T12:04:13.115Z,1.70
2023-07-18T12:06:40.249Z,1.85
2023-07-18T12:09:07.083Z,1.75
2023-07-18T12:11:35.013Z,1.90
2023-07-18T12:14:03.605Z,1.70
2023-07-18T12:16:30.439Z,1.83
2023-07-18T12:18:57.291Z,1.70
2023-07-18T12:21:24.134Z,1.80
2023-07-18T12:23:50.945Z,1.70
2023-07-18T12:26:17.958Z,1.65
2023-07-18T12:28:45.371Z,1.70
2023-07-18T12:31:13.005Z,1.85
2023-07-18T12:33:40.078Z,1.80
2023-07-18T12:36:06.966Z,1.83
2023-07-18T12:38:33.813Z,1.88
2023-07-18T12:41:00.670Z,1.73
2023-07-18T12:43:27.724Z,1.70
2023-07-18T12:45:55.497Z,1.90
2023-07-18T12:48:22.345Z,1.90
2023-07-18T12:50:49.242Z,1.92
2023-07-18T12:53:16.029Z,1.77
2023-07-18T12:55:42.803Z,1.85
2023-07-18T12:58:09.545Z,2.00
2023-07-18T13:00:36.297Z,1.70
2023-07-18T13:03:03.280Z,1.70
2023-07-18T13:05:30.356Z,2.10
2023-07-18T13:07:57.146Z,1.85
2023-07-18T13:10:24.076Z,1.55
2023-07-18T13:12:50.800Z,2.47
2023-07-18T13:15:18.818Z,2.17
2023-07-18T13:17:46.880Z,2.08
2023-07-18T13:20:13.735Z,1.85
2023-07-18T13:22:40.552Z,2.00
2023-07-18T13:25:07.755Z,1.70
2023-07-18T13:27:34.528Z,1.85
2023-07-18T13:30:01.280Z,1.70
2023-07-18T13:32:28.246Z,1.77
2023-07-18T13:34:55.098Z,1.40
2023-07-18T13:37:21.838Z,1.80
2023-07-18T13:39:49.893Z,1.80
2023-07-18T13:42:16.788Z,1.70
2023-07-18T13:44:43.540Z,1.83
2023-07-18T13:47:10.433Z,1.65
2023-07-18T13:49:49.871Z,1.63
2023-07-18T13:52:17.341Z,1.70
2023-07-18T13:54:44.069Z,2.00
2023-07-18T13:57:10.911Z,1.80
2023-07-18T13:59:37.763Z,1.75
2023-07-18T14:02:05.038Z,1.70
2023-07-18T14:04:32.001Z,1.95
2023-07-18T14:06:59.251Z,1.80
2023-07-18T14:09:26.136Z,1.65
2023-07-18T14:11:53.145Z,1.75
2023-07-18T14:14:19.919Z,2.03
2023-07-18T14:16:46.850Z,1.63
2023-07-18T14:19:13.624Z,1.88
2023-07-18T14:21:40.708Z,1.80
2023-07-18T14:24:07.698Z,2.00
2023-07-18T14:26:34.495Z,1.90
2023-07-18T14:29:01.700Z,1.63
2023-07-18T14:31:28.568Z,2.72
2023-07-18T14:34:05.391Z,2.20
2023-07-18T14:36:34.250Z,2.50
2023-07-18T14:39:01.147Z,1.70
2023-07-18T14:41:28.153Z,1.90
2023-07-18T14:43:54.976Z,1.75
2023-07-18T14:46:23.290Z,1.52
2023-07-18T14:48:51.034Z,1.45
2023-07-18T14:51:18.138Z,1.70
2023-07-18T14:53:44.982Z,1.80
2023-07-18T14:56:11.861Z,1.80
2023-07-18T14:58:38.676Z,1.80
2023-07-18T15:01:07.441Z,1.80
2023-07-18T15:03:35.235Z,1.55
2023-07-18T15:06:05.911Z,1.77
2023-07-18T15:08:34.098Z,1.80
2023-07-18T15:11:01.096Z,1.88
2023-07-18T15:13:28.010Z,1.83
2023-07-18T15:15:55.160Z,1.83
2023-07-18T15:18:21.971Z,1.67
2023-07-18T15:20:48.851Z,1.70
2023-07-18T15:23:15.877Z,1.73
2023-07-18T15:25:43.358Z,1.70
2023-07-18T15:28:14.480Z,1.67
2023-07-18T15:30:42.232Z,1.85
2023-07-18T15:33:24.978Z,1.70
2023-07-18T15:35:53.175Z,1.83
2023-07-18T15:38:19.971Z,1.67
2023-07-18T15:40:47.699Z,1.65
2023-07-18T15:43:14.763Z,1.70
2023-07-18T15:45:41.729Z,1.60
2023-07-18T16:09:49.874Z,1.90
2023-07-18T16:12:16.843Z,1.75
2023-07-18T16:14:43.965Z,1.52
2023-07-18T16:17:11.023Z,1.73
2023-07-18T16:19:38.426Z,1.80
2023-07-18T16:22:06.065Z,1.80
2023-07-18T16:24:33.234Z,1.98
2023-07-18T16:27:00.349Z,2.78
2023-07-18T16:29:27.669Z,1.60
2023-07-18T16:31:54.676Z,2.22
2023-07-18T16:34:21.485Z,1.75
2023-07-18T16:36:48.740Z,1.60
2023-07-18T16:39:15.501Z,1.70
2023-07-18T16:41:42.526Z,1.70
2023-07-18T16:44:10.927Z,1.70
2023-07-18T16:46:37.910Z,1.70
2023-07-18T16:49:05.114Z,2.05
2023-07-18T16:51:31.903Z,1.60
2023-07-18T16:53:58.684Z,1.83
2023-07-18T16:56:25.542Z,1.70
2023-07-18T16:58:52.367Z,1.92
2023-07-18T17:01:20.628Z,1.48
2023-07-18T17:03:47.520Z,1.80
2023-07-18T17:06:14.689Z,1.83
2023-07-18T17:08:41.825Z,1.75
2023-07-18T17:11:08.683Z,1.70
2023-07-18T17:13:35.544Z,1.60
2023-07-18T17:16:02.288Z,1.90
2023-07-18T17:18:29.064Z,2.20
2023-07-18T17:20:55.943Z,2.33
2023-07-18T17:23:22.794Z,1.65
2023-07-18T17:25:51.168Z,2.05
2023-07-18T17:28:17.914Z,1.77
2023-07-18T17:30:44.771Z,1.90
2023-07-18T17:33:11.617Z,1.80
2023-07-18T17:35:39.678Z,1.98
2023-07-18T17:38:06.663Z,1.70
2023-07-18T17:40:33.535Z,1.90
2023-07-18T17:43:03.350Z,1.98
2023-07-18T17:45:30.291Z,1.70
2023-07-18T17:47:59.160Z,1.88
2023-07-18T17:50:26.301Z,2.13
2023-07-18T17:52:53.113Z,1.60
2023-07-18T17:55:19.880Z,1.80
2023-07-18T17:57:46.587Z,1.80
2023-07-18T18:00:13.778Z,1.90
2023-07-18T18:02:40.719Z,1.75
2023-07-18T18:05:38.032Z,2.10
2023-07-18T18:08:06.329Z,1.52
2023-07-18T18:10:33.200Z,1.77
2023-07-18T18:13:00.117Z,2.05
2023-07-18T18:15:28.302Z,2.00
2023-07-18T18:17:55.510Z,2.60
2023-07-18T18:20:22.552Z,3.05
2023-07-18T18:22:49.494Z,1.90
2023-07-18T18:25:16.738Z,2.20
2023-07-18T18:27:45.030Z,2.80
2023-07-18T18:30:12.991Z,3.97
2023-07-18T18:32:39.946Z,2.35
2023-07-18T18:35:09.851Z,2.38
2023-07-18T18:37:38.109Z,2.25
2023-07-18T18:40:06.027Z,1.90
2023-07-18T18:42:34.552Z,2.10
2023-07-18T18:45:01.614Z,2.30
2023-07-18T18:47:28.609Z,2.00
2023-07-18T18:49:55.551Z,2.13
2023-07-18T18:52:22.422Z,1.95
2023-07-18T18:54:50.653Z,2.20
2023-07-18T18:57:18.453Z,2.13
2023-07-18T18:59:45.555Z,2.47
2023-07-18T19:02:15.232Z,2.00
2023-07-18T19:04:43.041Z,1.60
2023-07-18T19:07:09.752Z,1.95
2023-07-18T19:09:38.559Z,1.88
2023-07-18T19:12:07.182Z,1.80
2023-07-18T19:14:39.354Z,2.03
2023-07-18T19:17:07.058Z,1.83
2023-07-18T19:19:39.677Z,1.80
2023-07-18T19:22:08.207Z,2.03
2023-07-18T19:24:39.042Z,1.70
2023-07-18T19:27:11.312Z,2.40
2023-07-18T19:29:39.006Z,2.10
2023-07-18T19:32:09.638Z,2.50
2023-07-18T19:34:42.507Z,3.22
2023-07-18T19:37:09.855Z,7.18
2023-07-18T19:39:37.811Z,2.88
2023-07-18T19:42:05.784Z,5.40
2023-07-18T19:44:33.340Z,9.60
2023-07-18T19:47:00.140Z,6.65
2023-07-18T19:49:27.703Z,16.95
2023-07-18T19:51:55.087Z,4.93
2023-07-18T19:54:21.815Z,10.40
2023-07-18T19:56:48.596Z,14.77
2023-07-18T19:59:15.490Z,3.53
2023-07-18T20:01:43.647Z,7.53
2023-07-18T20:04:12.949Z,5.22
2023-07-18T20:06:39.966Z,7.65
2023-07-18T20:09:06.778Z,4.78
2023-07-18T20:11:33.941Z,10.25
2023-07-18T20:14:00.798Z,13.07
2023-07-18T20:16:27.675Z,5.70
2023-07-18T20:19:01.659Z,4.35
2023-07-18T20:21:30.049Z,4.38
2023-07-18T20:23:57.129Z,4.20
2023-07-18T20:26:24.122Z,4.25
2023-07-18T20:28:50.957Z,4.72
2023-07-18T20:31:18.003Z,3.50
2023-07-18T20:33:45.070Z,3.47
2023-07-18T20:36:11.875Z,3.78
2023-07-18T20:38:38.722Z,4.32
2023-07-18T20:41:09.517Z,3.20
2023-07-18T20:43:36.971Z,3.00
2023-07-18T20:46:04.914Z,2.90
2023-07-18T20:48:35.029Z,3.10
2023-07-18T20:51:01.787Z,3.13
2023-07-18T20:53:30.377Z,3.78
2023-07-18T20:55:57.430Z,3.15
2023-07-18T20:58:24.676Z,3.20
2023-07-18T21:00:51.841Z,3.33
2023-07-18T21:03:18.861Z,3.40
2023-07-18T21:05:49.870Z,3.42
2023-07-18T21:08:18.202Z,3.25
2023-07-18T21:10:45.173Z,3.88
2023-07-18T21:13:12.137Z,3.90
2023-07-18T21:15:39.323Z,3.30
2023-07-18T21:18:06.283Z,3.67
2023-07-18T21:20:33.134Z,3.40
2023-07-18T21:23:00.945Z,3.60
2023-07-18T21:25:28.532Z,3.75
2023-07-18T21:27:55.481Z,3.88
2023-07-18T21:30:22.423Z,4.18
2023-07-18T21:32:49.393Z,5.22
2023-07-18T21:35:16.274Z,5.28
2023-07-18T21:37:43.093Z,4.78
2023-07-18T21:40:10.368Z,4.97
2023-07-18T21:42:37.188Z,5.38
2023-07-18T21:45:04.399Z,5.68
2023-07-18T21:47:55.901Z,6.03
2023-07-18T21:50:23.022Z,6.10
2023-07-18T21:52:49.996Z,5.82
2023-07-18T21:55:16.962Z,4.90
2023-07-18T21:57:44.532Z,4.97
2023-07-18T22:00:11.793Z,4.40
2023-07-18T22:02:38.845Z,5.10
2023-07-18T22:05:05.986Z,4.30
2023-07-18T22:07:33.193Z,4.72
2023-07-18T22:10:04.255Z,3.88
2023-07-18T22:12:31.213Z,3.88
2023-07-18T22:14:58.098Z,4.00
2023-07-18T22:17:25.126Z,3.40
2023-07-18T22:19:51.958Z,3.03
2023-07-18T22:22:19.425Z,4.00
2023-07-18T22:24:46.257Z,3.63
2023-07-18T22:27:13.073Z,3.38
2023-07-18T22:29:40.150Z,3.58
2023-07-18T22:32:09.380Z,3.08
2023-07-18T22:34:36.557Z,3.53
2023-07-18T22:37:03.454Z,3.35
2023-07-18T22:39:36.421Z,4.07
2023-07-18T22:42:17.933Z,3.78
2023-07-18T22:44:46.370Z,4.05
2023-07-18T22:47:13.792Z,3.53
2023-07-18T22:49:41.458Z,4.32
2023-07-18T22:52:09.456Z,5.18
2023-07-18T22:54:40.010Z,3.60
2023-07-18T22:57:07.462Z,3.42
2023-07-18T22:59:34.407Z,3.40
2023-07-18T23:02:01.237Z,3.83
2023-07-18T23:04:29.316Z,4.72
2023-07-18T23:06:56.569Z,4.30
2023-07-18T23:09:23.571Z,4.70
2023-07-18T23:11:52.757Z,5.38
2023-07-18T23:14:20.623Z,5.60
2023-07-18T23:16:47.880Z,4.82
2023-07-18T23:19:14.831Z,4.25
2023-07-18T23:21:41.596Z,4.13
2023-07-18T23:24:08.544Z,3.30
2023-07-18T23:26:35.323Z,3.10
2023-07-18T23:29:03.601Z,3.63
2023-07-18T23:31:30.487Z,2.97
2023-07-18T23:33:57.320Z,2.83
2023-07-18T23:36:24.212Z,2.55
2023-07-18T23:38:51.018Z,2.90
2023-07-18T23:41:18.054Z,3.40
2023-07-18T23:43:44.973Z,2.95
2023-07-18T23:46:11.949Z,3.20
2023-07-18T23:48:38.879Z,2.70
2023-07-18T23:51:05.674Z,2.60
2023-07-18T23:53:32.447Z,2.65
2023-07-18T23:55:59.201Z,3.00
2023-07-18T23:58:25.963Z,2.60
